createdAt,value
2022-09-26T00:01:25.410Z,4.38
2022-09-26T00:03:59.464Z,4.40
2022-09-26T00:06:27.429Z,4.20
2022-09-26T00:08:54.436Z,4.55
2022-09-26T00:11:24.948Z,4.70
2022-09-26T00:13:54.321Z,4.47
2022-09-26T00:16:21.842Z,4.32
2022-09-26T00:18:50.749Z,4.07
2022-09-26T00:21:18.605Z,3.80
2022-09-26T00:23:46.058Z,4.40
2022-09-26T00:26:14.330Z,4.30
2022-09-26T00:28:41.032Z,4.32
2022-09-26T00:31:14.563Z,4.30
2022-09-26T00:33:41.644Z,4.10
2022-09-26T00:36:08.965Z,3.80
2022-09-26T00:38:35.726Z,3.53
2022-09-26T00:41:02.979Z,3.65
2022-09-26T00:43:35.568Z,3.45
2022-09-26T00:46:26.931Z,4.00
2022-09-26T00:49:25.729Z,4.00
2022-09-26T00:52:15.467Z,3.78
2022-09-26T00:54:46.889Z,5.38
2022-09-26T00:57:18.851Z,4.38
2022-09-26T00:59:50.449Z,4.45
2022-09-26T01:02:18.450Z,4.35
2022-09-26T01:04:47.211Z,4.50
2022-09-26T01:07:24.049Z,4.38
2022-09-26T01:09:51.558Z,4.60
2022-09-26T01:12:20.128Z,4.35
2022-09-26T01:14:48.590Z,4.63
2022-09-26T01:17:16.124Z,4.40
2022-09-26T01:20:04.361Z,4.50
2022-09-26T01:23:05.969Z,4.28
2022-09-26T01:25:51.257Z,4.15
2022-09-26T01:31:12.205Z,3.88
2022-09-26T01:33:57.519Z,4.22
2022-09-26T01:39:20.058Z,4.15
2022-09-26T01:41:55.701Z,4.28
2022-09-26T01:44:31.123Z,4.18
2022-09-26T01:47:15.934Z,4.13
2022-09-26T01:49:58.799Z,3.47
2022-09-26T01:52:34.157Z,3.08
2022-09-26T01:55:18.176Z,3.28
2022-09-26T01:57:49.706Z,3.22
2022-09-26T02:00:16.463Z,3.53
2022-09-26T02:02:49.282Z,3.42
2022-09-26T02:05:28.854Z,3.05
2022-09-26T02:08:02.093Z,3.60
2022-09-26T02:10:34.857Z,2.95
2022-09-26T02:13:09.340Z,2.72
2022-09-26T02:15:38.320Z,3.22
2022-09-26T02:18:31.516Z,2.58
2022-09-26T02:21:07.475Z,2.30
2022-09-26T02:23:34.133Z,2.85
2022-09-26T02:26:00.765Z,2.85
2022-09-26T02:28:28.590Z,3.25
2022-09-26T02:30:56.403Z,3.20
2022-09-26T02:33:23.685Z,3.25
2022-09-26T02:35:56.508Z,3.13
2022-09-26T02:38:29.716Z,2.72
2022-09-26T02:41:00.328Z,2.47
2022-09-26T02:43:52.294Z,2.60
2022-09-26T02:46:39.791Z,2.20
2022-09-26T02:49:18.493Z,2.03
2022-09-26T02:52:23.794Z,2.30
2022-09-26T02:55:13.866Z,2.50
2022-09-26T02:58:19.153Z,2.50
2022-09-26T03:00:52.131Z,2.15
2022-09-26T03:03:53.559Z,1.90
2022-09-26T03:06:25.772Z,2.20
2022-09-26T03:08:55.317Z,1.75
2022-09-26T03:11:24.828Z,1.90
2022-09-26T03:13:54.996Z,1.80
2022-09-26T03:16:24.029Z,1.55
2022-09-26T03:19:09.799Z,2.10
2022-09-26T03:21:37.361Z,1.90
2022-09-26T03:24:04.275Z,2.13
2022-09-26T03:26:32.918Z,2.15
2022-09-26T03:28:59.734Z,2.05
2022-09-26T03:31:27.305Z,1.85
2022-09-26T03:33:54.211Z,1.65
2022-09-26T03:36:24.089Z,1.30
2022-09-26T03:38:50.770Z,1.48
2022-09-26T03:41:17.606Z,1.58
2022-09-26T03:43:44.275Z,1.27
2022-09-26T03:46:12.825Z,1.50
2022-09-26T03:48:39.912Z,1.50
2022-09-26T03:51:14.126Z,1.23
2022-09-26T03:53:43.330Z,0.95
2022-09-26T03:56:13.152Z,1.40
2022-09-26T03:58:40.006Z,1.40
2022-09-26T04:01:09.474Z,1.30
2022-09-26T04:03:38.297Z,1.30
2022-09-26T04:06:08.563Z,1.30
2022-09-26T04:08:39.647Z,1.58
2022-09-26T04:11:09.433Z,1.15
2022-09-26T04:13:51.402Z,1.30
2022-09-26T04:16:20.278Z,1.30
2022-09-26T04:18:47.199Z,0.93
2022-09-26T04:21:17.249Z,0.93
2022-09-26T04:23:44.439Z,0.98
2022-09-26T04:26:22.971Z,1.65
2022-09-26T04:28:52.307Z,1.08
2022-09-26T04:31:21.873Z,1.10
2022-09-26T04:33:49.148Z,1.15
2022-09-26T04:36:17.257Z,1.08
2022-09-26T04:38:43.887Z,1.08
2022-09-26T04:41:13.851Z,0.77
2022-09-26T04:43:41.267Z,1.00
2022-09-26T04:46:10.718Z,0.90
2022-09-26T04:48:37.582Z,1.00
2022-09-26T04:51:06.459Z,0.60
2022-09-26T04:53:33.893Z,0.57
2022-09-26T04:56:01.088Z,0.90
2022-09-26T04:58:28.422Z,0.90
2022-09-26T05:00:55.295Z,0.95
2022-09-26T05:03:22.163Z,1.52
2022-09-26T05:05:49.546Z,0.82
2022-09-26T05:08:17.092Z,0.70
2022-09-26T05:10:44.083Z,0.80
2022-09-26T05:13:10.909Z,0.90
2022-09-26T05:15:40.034Z,1.00
2022-09-26T05:18:07.905Z,1.30
2022-09-26T05:20:38.705Z,1.13
2022-09-26T05:23:07.832Z,1.00
2022-09-26T05:25:59.148Z,1.30
2022-09-26T05:28:26.859Z,1.05
2022-09-26T05:30:54.529Z,1.02
2022-09-26T05:33:21.863Z,1.10
2022-09-26T05:35:55.117Z,1.10
2022-09-26T05:38:21.739Z,0.98
2022-09-26T05:40:57.186Z,1.05
2022-09-26T05:43:28.206Z,0.85
2022-09-26T05:45:59.716Z,1.00
2022-09-26T05:48:27.031Z,1.02
2022-09-26T05:50:53.654Z,0.90
2022-09-26T05:53:20.361Z,0.70
2022-09-26T05:55:53.037Z,1.02
2022-09-26T05:58:19.718Z,0.70
2022-09-26T06:00:50.188Z,0.90
2022-09-26T06:03:17.101Z,0.73
2022-09-26T06:05:43.930Z,0.73
2022-09-26T06:08:11.187Z,1.13
2022-09-26T06:10:39.042Z,0.80
2022-09-26T06:13:07.795Z,0.80
2022-09-26T06:15:34.484Z,0.70
2022-09-26T06:18:06.119Z,0.70
2022-09-26T06:20:33.735Z,0.70
2022-09-26T06:23:01.889Z,0.55
2022-09-26T06:25:29.373Z,0.80
2022-09-26T06:28:00.105Z,0.60
2022-09-26T06:30:27.429Z,0.70
2022-09-26T06:32:54.360Z,0.70
2022-09-26T06:35:21.549Z,1.20
2022-09-26T06:37:48.714Z,1.30
2022-09-26T06:40:16.184Z,0.60
2022-09-26T06:42:46.839Z,0.60
2022-09-26T06:45:13.438Z,0.65
2022-09-26T06:47:40.099Z,0.77
2022-09-26T06:50:07.970Z,0.80
2022-09-26T06:52:34.970Z,0.50
2022-09-26T06:55:06.890Z,0.70
2022-09-26T06:57:41.054Z,0.60
2022-09-26T07:00:09.376Z,0.80
2022-09-26T07:02:36.661Z,0.75
2022-09-26T07:05:05.624Z,0.70
2022-09-26T07:07:32.860Z,0.68
2022-09-26T07:09:59.555Z,0.65
2022-09-26T07:12:26.341Z,0.70
2022-09-26T07:14:53.930Z,0.88
2022-09-26T07:17:21.320Z,0.80
2022-09-26T07:19:52.203Z,0.82
2022-09-26T07:22:19.172Z,0.80
2022-09-26T07:24:50.271Z,0.88
2022-09-26T07:27:18.125Z,0.70
2022-09-26T07:29:49.012Z,0.65
2022-09-26T07:32:15.735Z,0.60
2022-09-26T07:34:44.021Z,0.70
2022-09-26T07:37:10.835Z,0.60
2022-09-26T07:39:37.486Z,0.60
2022-09-26T07:42:04.472Z,0.68
2022-09-26T07:47:36.322Z,0.80
2022-09-26T07:52:44.268Z,0.55
2022-09-26T07:55:14.519Z,0.50
2022-09-26T07:57:41.226Z,0.55
2022-09-26T08:00:14.261Z,0.80
2022-09-26T08:02:46.886Z,0.60
2022-09-26T08:05:20.154Z,0.95
2022-09-26T08:07:48.701Z,0.60
2022-09-26T08:10:24.059Z,0.70
2022-09-26T08:12:50.866Z,0.73
2022-09-26T08:15:17.627Z,0.70
2022-09-26T08:17:44.283Z,0.60
2022-09-26T08:20:11.154Z,0.60
2022-09-26T08:22:37.802Z,0.75
2022-09-26T08:25:06.956Z,0.80
2022-09-26T08:27:34.483Z,0.60
2022-09-26T08:30:04.448Z,0.70
2022-09-26T08:32:32.414Z,0.57
2022-09-26T08:35:00.240Z,0.70
2022-09-26T08:37:28.193Z,0.63
2022-09-26T08:39:54.864Z,0.70
2022-09-26T08:42:38.912Z,0.80
2022-09-26T08:45:36.509Z,0.80
2022-09-26T08:48:40.638Z,0.60
2022-09-26T08:51:31.991Z,0.73
2022-09-26T08:54:05.624Z,0.95
2022-09-26T08:56:39.361Z,0.90
2022-09-26T08:59:14.148Z,1.10
2022-09-26T09:04:17.385Z,1.00
2022-09-26T09:06:44.891Z,1.30
2022-09-26T09:09:16.373Z,1.00
2022-09-26T09:12:10.616Z,1.20
2022-09-26T09:15:24.603Z,1.13
2022-09-26T09:18:20.976Z,1.40
2022-09-26T09:21:02.464Z,1.30
2022-09-26T09:24:00.222Z,1.20
2022-09-26T09:30:15.727Z,1.23
2022-09-26T09:33:27.867Z,1.40
2022-09-26T09:36:10.839Z,1.40
2022-09-26T09:38:40.359Z,1.50
2022-09-26T09:41:14.613Z,1.55
2022-09-26T09:43:48.794Z,1.70
2022-09-26T09:46:25.151Z,2.03
2022-09-26T09:48:58.223Z,1.55
2022-09-26T09:51:48.382Z,1.77
2022-09-26T09:54:29.889Z,2.00
2022-09-26T09:57:41.273Z,1.80
2022-09-26T10:00:19.456Z,1.83
2022-09-26T10:03:19.235Z,1.88
2022-09-26T10:05:51.755Z,1.95
2022-09-26T10:08:22.665Z,1.75
2022-09-26T10:11:04.415Z,1.67
2022-09-26T10:13:31.671Z,1.73
2022-09-26T10:16:05.241Z,1.60
2022-09-26T10:18:32.152Z,1.90
2022-09-26T10:21:06.846Z,1.60
2022-09-26T10:23:40.407Z,1.98
2022-09-26T10:26:09.716Z,2.28
2022-09-26T10:28:43.659Z,2.00
2022-09-26T10:31:12.004Z,2.77
2022-09-26T10:33:44.427Z,1.67
2022-09-26T10:36:20.676Z,1.75
2022-09-26T10:39:15.430Z,1.70
2022-09-26T10:41:45.083Z,1.97
2022-09-26T10:44:26.227Z,2.08
2022-09-26T10:46:58.140Z,1.95
2022-09-26T10:49:36.303Z,2.00
2022-09-26T10:52:08.441Z,1.70
2022-09-26T10:54:42.434Z,2.33
2022-09-26T10:57:19.791Z,3.03
2022-09-26T10:59:48.375Z,2.40
2022-09-26T11:02:21.982Z,2.25
2022-09-26T11:05:10.673Z,2.38
2022-09-26T11:07:42.914Z,2.03
2022-09-26T11:10:14.373Z,1.95
2022-09-26T11:12:56.966Z,2.30
2022-09-26T11:15:24.039Z,2.53
2022-09-26T11:17:53.535Z,2.40
2022-09-26T11:20:23.159Z,2.83
2022-09-26T11:23:00.687Z,2.30
2022-09-26T11:25:32.462Z,2.50
2022-09-26T11:28:40.372Z,2.40
2022-09-26T11:31:18.521Z,2.70
2022-09-26T11:33:45.323Z,2.70
2022-09-26T11:36:24.760Z,1.73
2022-09-26T11:38:56.878Z,2.40
2022-09-26T11:41:38.690Z,2.15
2022-09-26T11:44:05.305Z,2.03
2022-09-26T11:47:04.257Z,2.33
2022-09-26T11:50:08.192Z,2.20
2022-09-26T11:52:53.242Z,2.22
2022-09-26T11:55:24.333Z,2.00
2022-09-26T11:58:17.023Z,2.50
2022-09-26T12:00:49.148Z,2.13
2022-09-26T12:03:33.565Z,2.17
2022-09-26T12:06:21.830Z,2.03
2022-09-26T12:09:09.497Z,1.73
2022-09-26T12:11:52.982Z,1.92
2022-09-26T12:14:28.673Z,2.15
2022-09-26T12:17:11.624Z,2.08
2022-09-26T12:20:06.904Z,2.10
2022-09-26T12:22:43.953Z,2.28
2022-09-26T12:25:11.316Z,2.00
2022-09-26T12:27:43.510Z,1.80
2022-09-26T12:30:18.280Z,1.88
2022-09-26T12:35:32.458Z,1.88
2022-09-26T12:37:59.124Z,2.30
2022-09-26T12:40:39.065Z,2.10
2022-09-26T12:43:26.147Z,1.85
2022-09-26T12:46:18.037Z,1.95
2022-09-26T12:49:02.012Z,1.90
2022-09-26T12:51:37.284Z,1.77
2022-09-26T12:54:13.339Z,1.85
2022-09-26T12:57:04.368Z,1.88
2022-09-26T12:59:49.840Z,1.90
2022-09-26T13:02:37.531Z,1.77
2022-09-26T13:05:17.269Z,1.80
2022-09-26T13:08:14.425Z,1.67
2022-09-26T13:11:07.833Z,1.70
2022-09-26T13:13:50.038Z,1.50
2022-09-26T13:16:20.678Z,1.45
2022-09-26T13:18:51.807Z,1.48
2022-09-26T13:21:24.897Z,1.60
2022-09-26T13:23:58.783Z,1.45
2022-09-26T13:26:34.165Z,1.70
2022-09-26T13:29:23.688Z,1.60
2022-09-26T13:32:14.703Z,1.50
2022-09-26T13:35:04.163Z,1.60
2022-09-26T13:37:46.099Z,1.33
2022-09-26T13:40:30.769Z,1.38
2022-09-26T13:43:23.807Z,1.50
2022-09-26T13:46:00.293Z,1.50
2022-09-26T13:49:01.039Z,1.40
2022-09-26T13:51:54.632Z,1.85
2022-09-26T13:54:54.213Z,1.80
2022-09-26T13:57:35.262Z,1.70
2022-09-26T14:00:29.341Z,1.80
2022-09-26T14:03:13.753Z,1.95
2022-09-26T14:05:52.578Z,1.98
2022-09-26T14:08:50.612Z,2.35
2022-09-26T14:11:28.761Z,2.53
2022-09-26T14:14:18.110Z,2.10
2022-09-26T14:16:53.759Z,2.10
2022-09-26T14:19:30.686Z,2.08
2022-09-26T14:22:19.185Z,2.45
2022-09-26T14:24:49.424Z,1.60
2022-09-26T14:27:16.058Z,2.28
2022-09-26T14:29:44.588Z,2.20
2022-09-26T14:32:23.348Z,2.08
2022-09-26T14:35:16.677Z,1.90
2022-09-26T14:37:46.107Z,2.10
2022-09-26T14:40:21.886Z,2.10
2022-09-26T14:43:04.182Z,2.53
2022-09-26T14:45:37.036Z,2.08
2022-09-26T14:48:21.985Z,1.75
2022-09-26T14:51:01.132Z,2.20
2022-09-26T14:53:41.340Z,2.25
2022-09-26T14:56:35.238Z,2.20
2022-09-26T14:59:16.931Z,2.33
2022-09-26T15:01:44.770Z,2.42
2022-09-26T15:04:23.598Z,2.20
2022-09-26T15:06:56.789Z,2.50
2022-09-26T15:09:49.653Z,2.00
2022-09-26T15:12:30.975Z,1.80
2022-09-26T15:15:09.899Z,2.00
2022-09-26T15:17:44.276Z,1.40
2022-09-26T15:20:20.231Z,1.80
2022-09-26T15:22:48.423Z,1.60
2022-09-26T15:25:31.377Z,1.65
2022-09-26T15:27:59.267Z,1.80
2022-09-26T15:30:36.115Z,1.90
2022-09-26T15:33:04.179Z,1.40
2022-09-26T15:35:32.507Z,2.00
2022-09-26T15:38:03.146Z,1.60
2022-09-26T15:40:32.169Z,1.85
2022-09-26T15:43:16.054Z,1.70
2022-09-26T15:45:46.362Z,1.60
2022-09-26T15:48:19.313Z,1.90
2022-09-26T15:50:55.735Z,2.22
2022-09-26T15:53:46.248Z,2.00
2022-09-26T15:56:23.557Z,1.98
2022-09-26T15:59:40.868Z,1.98
2022-09-26T16:02:23.195Z,1.95
2022-09-26T16:04:52.866Z,1.77
2022-09-26T16:07:23.837Z,1.63
2022-09-26T16:09:51.623Z,1.52
2022-09-26T16:12:22.429Z,2.05
2022-09-26T16:14:58.612Z,1.70
2022-09-26T16:17:36.970Z,1.73
2022-09-26T16:20:11.844Z,2.00
2022-09-26T16:25:18.931Z,2.30
2022-09-26T16:28:11.701Z,1.60
2022-09-26T16:30:41.137Z,1.67
2022-09-26T16:33:08.048Z,1.70
2022-09-26T16:35:45.121Z,1.20
2022-09-26T16:38:26.774Z,1.65
2022-09-26T16:41:01.876Z,2.03
2022-09-26T16:43:31.779Z,1.80
2022-09-26T16:46:01.831Z,1.67
2022-09-26T16:48:45.493Z,1.63
2022-09-26T16:51:21.284Z,1.65
2022-09-26T16:53:54.189Z,1.73
2022-09-26T16:56:23.629Z,1.70
2022-09-26T16:58:51.742Z,1.90
2022-09-26T17:01:37.857Z,1.30
2022-09-26T17:04:10.467Z,1.60
2022-09-26T17:06:37.360Z,1.50
2022-09-26T17:09:16.815Z,1.70
2022-09-26T17:11:47.497Z,1.38
2022-09-26T17:14:16.938Z,1.90
2022-09-26T17:16:47.010Z,1.50
2022-09-26T17:19:16.697Z,1.92
2022-09-26T17:21:44.210Z,1.50
2022-09-26T17:24:17.195Z,2.00
2022-09-26T17:26:49.617Z,1.70
2022-09-26T17:29:34.107Z,1.85
2022-09-26T17:32:05.087Z,2.03
2022-09-26T17:34:34.970Z,1.52
2022-09-26T17:37:01.891Z,1.88
2022-09-26T17:39:29.377Z,1.98
2022-09-26T17:42:00.019Z,2.38
2022-09-26T17:44:26.720Z,2.03
2022-09-26T17:46:56.361Z,1.80
2022-09-26T17:49:30.563Z,1.42
2022-09-26T17:52:00.766Z,1.45
2022-09-26T17:54:42.506Z,1.80
2022-09-26T17:57:14.373Z,2.10
2022-09-26T17:59:42.804Z,1.75
2022-09-26T18:02:34.526Z,1.80
2022-09-26T18:05:06.226Z,1.83
2022-09-26T18:07:41.541Z,1.90
2022-09-26T18:10:19.406Z,1.80
2022-09-26T18:12:56.756Z,2.28
2022-09-26T18:15:24.586Z,2.15
2022-09-26T18:17:51.602Z,2.50
2022-09-26T18:20:20.118Z,2.35
2022-09-26T18:22:48.986Z,2.22
2022-09-26T18:25:19.333Z,2.40
2022-09-26T18:27:47.327Z,2.30
2022-09-26T18:30:18.890Z,2.47
2022-09-26T18:32:50.984Z,2.00
2022-09-26T18:35:20.276Z,2.25
2022-09-26T18:37:46.950Z,2.45
2022-09-26T18:40:15.655Z,2.22
2022-09-26T18:42:44.652Z,2.47
2022-09-26T18:45:19.638Z,2.97
2022-09-26T18:50:27.406Z,3.00
2022-09-26T18:52:54.122Z,3.20
2022-09-26T18:55:42.729Z,2.80
2022-09-26T18:58:24.017Z,3.00
2022-09-26T19:01:16.873Z,3.72
2022-09-26T19:03:46.939Z,3.15
2022-09-26T19:06:19.031Z,2.80
2022-09-26T19:08:51.784Z,2.70
2022-09-26T19:11:21.265Z,2.90
2022-09-26T19:13:53.581Z,2.80
2022-09-26T19:16:21.325Z,3.28
2022-09-26T19:18:48.479Z,3.08
2022-09-26T19:21:20.905Z,3.00
2022-09-26T19:23:49.328Z,2.88
2022-09-26T19:26:30.241Z,2.70
2022-09-26T19:28:59.451Z,2.40
2022-09-26T19:31:27.383Z,2.63
2022-09-26T19:33:54.866Z,2.75
2022-09-26T19:36:22.013Z,2.60
2022-09-26T19:38:48.920Z,2.53
2022-09-26T19:41:15.710Z,3.25
2022-09-26T19:43:42.508Z,2.65
2022-09-26T19:46:14.648Z,2.72
2022-09-26T19:48:44.154Z,2.70
2022-09-26T19:51:14.236Z,3.00
2022-09-26T19:53:41.251Z,3.08
2022-09-26T19:56:08.109Z,2.80
2022-09-26T19:58:35.196Z,2.45
2022-09-26T20:01:14.256Z,2.53
2022-09-26T20:03:41.959Z,2.58
2022-09-26T20:06:24.488Z,2.83
2022-09-26T20:08:56.407Z,3.25
2022-09-26T20:11:27.192Z,2.42
2022-09-26T20:14:12.772Z,2.90
2022-09-26T20:16:42.401Z,2.25
2022-09-26T20:19:16.474Z,2.45
2022-09-26T20:21:43.320Z,2.20
2022-09-26T20:24:16.514Z,2.83
2022-09-26T20:26:43.492Z,2.70
2022-09-26T20:29:14.762Z,2.25
2022-09-26T20:31:44.769Z,2.10
2022-09-26T20:34:12.213Z,2.05
2022-09-26T20:36:47.083Z,1.92
2022-09-26T20:41:43.931Z,2.25
2022-09-26T20:44:36.785Z,2.13
2022-09-26T20:47:04.815Z,2.40
2022-09-26T20:49:46.178Z,2.50
2022-09-26T20:52:20.695Z,2.50
2022-09-26T20:54:47.369Z,2.40
2022-09-26T20:57:17.313Z,2.40
2022-09-26T20:59:44.124Z,2.35
2022-09-26T21:02:26.165Z,2.33
2022-09-26T21:04:53.794Z,2.55
2022-09-26T21:07:21.083Z,2.67
2022-09-26T21:09:49.742Z,2.33
2022-09-26T21:12:17.916Z,2.35
2022-09-26T21:14:45.005Z,2.72
2022-09-26T21:17:24.854Z,2.28
2022-09-26T21:19:51.635Z,2.40
2022-09-26T21:22:20.804Z,2.30
2022-09-26T21:24:49.290Z,2.47
2022-09-26T21:27:16.074Z,2.40
2022-09-26T21:29:43.683Z,2.50
2022-09-26T21:32:17.209Z,2.40
2022-09-26T21:34:56.096Z,2.40
2022-09-26T21:37:22.838Z,3.30
2022-09-26T21:39:50.069Z,1.92
2022-09-26T21:42:16.832Z,2.47
2022-09-26T21:44:48.481Z,2.45
2022-09-26T21:47:15.631Z,2.35
2022-09-26T21:49:46.497Z,2.20
2022-09-26T21:52:25.210Z,2.45
2022-09-26T21:54:52.415Z,3.13
2022-09-26T21:57:25.142Z,2.60
2022-09-26T21:59:53.401Z,2.50
2022-09-26T22:02:20.747Z,2.88
2022-09-26T22:04:48.373Z,2.42
2022-09-26T22:07:15.076Z,2.40
2022-09-26T22:09:42.246Z,2.58
2022-09-26T22:12:08.999Z,2.60
2022-09-26T22:14:35.709Z,3.00
2022-09-26T22:17:02.454Z,2.97
2022-09-26T22:19:33.428Z,3.38
2022-09-26T22:22:00.939Z,3.10
2022-09-26T22:24:28.359Z,3.10
2022-09-26T22:26:55.118Z,2.50
2022-09-26T22:29:21.780Z,2.90
2022-09-26T22:31:48.581Z,2.97
2022-09-26T22:34:15.895Z,2.95
2022-09-26T22:36:42.595Z,2.65
2022-09-26T22:39:09.374Z,3.08
2022-09-26T22:41:36.101Z,2.75
2022-09-26T22:44:04.136Z,2.80
2022-09-26T22:46:33.536Z,3.00
2022-09-26T22:49:00.586Z,2.80
2022-09-26T22:51:27.813Z,2.65
2022-09-26T22:53:55.034Z,2.78
2022-09-26T22:56:21.989Z,2.83
2022-09-26T22:58:51.718Z,3.40
2022-09-26T23:01:24.142Z,2.38
2022-09-26T23:03:55.115Z,2.78
2022-09-26T23:06:22.757Z,2.47
2022-09-26T23:08:49.966Z,2.58
2022-09-26T23:11:18.393Z,2.47
2022-09-26T23:13:46.305Z,2.30
2022-09-26T23:16:17.180Z,2.78
2022-09-26T23:18:44.757Z,3.00
2022-09-26T23:21:14.433Z,3.30
2022-09-26T23:23:46.336Z,3.30
2022-09-26T23:26:22.182Z,3.33
2022-09-26T23:28:53.939Z,2.72
2022-09-26T23:31:21.825Z,3.00
2022-09-26T23:33:48.589Z,4.25
2022-09-26T23:36:15.375Z,3.35
2022-09-26T23:38:42.408Z,3.47
2022-09-26T23:41:11.388Z,3.38
2022-09-26T23:43:38.989Z,3.08
2022-09-26T23:46:06.694Z,3.47
2022-09-26T23:48:34.692Z,2.97
2022-09-26T23:51:01.464Z,3.47
2022-09-26T23:53:28.181Z,3.75
2022-09-26T23:56:11.651Z,3.22
2022-09-26T23:58:38.673Z,3.40
